createdAt,value
2023-05-05T00:01:50.594Z,16.33
2023-05-05T00:04:22.805Z,16.28
2023-05-05T00:06:50.677Z,16.23
2023-05-05T00:09:17.796Z,16.20
2023-05-05T00:11:45.165Z,16.17
2023-05-05T00:14:12.110Z,16.14
2023-05-05T00:16:39.258Z,16.10
2023-05-05T00:19:06.867Z,16.05
2023-05-05T00:21:33.676Z,15.99
2023-05-05T00:24:00.600Z,15.95
2023-05-05T00:26:27.536Z,15.88
2023-05-05T00:28:55.412Z,15.83
2023-05-05T00:31:22.838Z,15.80
2023-05-05T00:33:50.002Z,15.76
2023-05-05T00:36:16.866Z,15.73
2023-05-05T00:38:43.699Z,15.70
2023-05-05T00:41:10.861Z,15.67
2023-05-05T00:43:37.717Z,15.64
2023-05-05T00:46:23.658Z,15.63
2023-05-05T00:48:51.088Z,15.62
2023-05-05T00:51:19.041Z,15.62
2023-05-05T00:53:46.856Z,15.62
2023-05-05T00:56:14.486Z,15.62
2023-05-05T00:58:42.563Z,15.61
2023-05-05T01:01:10.862Z,15.62
2023-05-05T01:03:38.945Z,15.62
2023-05-05T01:06:15.640Z,15.61
2023-05-05T01:16:30.209Z,15.58
2023-05-05T01:18:57.243Z,15.55
2023-05-05T01:21:27.696Z,15.53
2023-05-05T01:24:01.477Z,15.52
2023-05-05T01:26:48.340Z,15.51
2023-05-05T01:29:42.171Z,15.46
2023-05-05T01:32:15.913Z,15.45
2023-05-05T01:34:52.405Z,15.43
2023-05-05T01:37:22.671Z,15.42
2023-05-05T01:39:53.179Z,15.42
2023-05-05T01:42:20.034Z,15.38
2023-05-05T01:44:46.972Z,15.36
2023-05-05T01:47:17.069Z,15.34
2023-05-05T01:49:45.143Z,15.33
2023-05-05T01:52:11.982Z,15.31
2023-05-05T01:54:39.674Z,15.28
2023-05-05T01:57:06.650Z,15.27
2023-05-05T01:59:33.754Z,15.25
2023-05-05T02:02:01.254Z,15.24
2023-05-05T02:04:28.717Z,15.22
2023-05-05T02:06:57.102Z,15.21
2023-05-05T02:09:25.308Z,15.19
2023-05-05T02:11:53.602Z,15.15
2023-05-05T02:14:20.685Z,15.12
2023-05-05T02:16:47.627Z,15.09
2023-05-05T02:19:14.807Z,15.09
2023-05-05T02:21:42.459Z,15.08
2023-05-05T02:24:09.344Z,15.04
2023-05-05T02:26:39.573Z,15.01
2023-05-05T02:29:11.286Z,14.99
2023-05-05T02:31:46.849Z,14.99
2023-05-05T02:34:16.749Z,14.94
2023-05-05T02:36:43.877Z,14.92
2023-05-05T02:39:20.010Z,14.90
2023-05-05T02:41:48.354Z,14.88
2023-05-05T02:44:23.679Z,14.87
2023-05-05T02:46:51.531Z,14.86
2023-05-05T02:49:18.542Z,14.86
2023-05-05T02:51:45.886Z,14.86
2023-05-05T02:54:19.967Z,14.85
2023-05-05T02:56:48.541Z,14.85
2023-05-05T02:59:31.083Z,14.85
2023-05-05T03:02:33.166Z,14.85
2023-05-05T03:05:23.312Z,14.88
2023-05-05T03:08:17.197Z,14.87
2023-05-05T03:11:00.572Z,14.88
2023-05-05T03:13:27.981Z,14.88
2023-05-05T03:15:54.889Z,14.90
2023-05-05T03:18:23.296Z,14.91
2023-05-05T03:20:55.731Z,14.91
2023-05-05T03:23:23.029Z,14.93
2023-05-05T03:25:55.044Z,14.94
2023-05-05T03:28:42.208Z,14.95
2023-05-05T03:31:25.498Z,14.96
2023-05-05T03:33:55.279Z,14.97
2023-05-05T03:36:24.165Z,14.99
2023-05-05T03:38:51.186Z,15.00
2023-05-05T03:41:21.797Z,15.02
2023-05-05T03:43:48.733Z,15.04
2023-05-05T03:46:16.451Z,15.08
2023-05-05T03:48:44.086Z,15.10
2023-05-05T03:51:13.237Z,15.10
2023-05-05T03:53:40.464Z,15.11
2023-05-05T03:56:07.992Z,15.14
2023-05-05T03:58:35.144Z,15.17
2023-05-05T04:01:02.095Z,15.21
2023-05-05T04:03:29.299Z,15.23
2023-05-05T04:05:56.283Z,15.27
2023-05-05T04:08:23.242Z,15.31
2023-05-05T04:10:51.306Z,15.35
2023-05-05T04:13:18.262Z,15.38
2023-05-05T04:15:46.588Z,15.39
2023-05-05T04:18:14.169Z,15.40
2023-05-05T04:20:41.172Z,15.41
2023-05-05T04:23:08.910Z,15.42
2023-05-05T04:25:36.241Z,15.44
2023-05-05T04:28:04.518Z,15.44
2023-05-05T04:30:31.783Z,15.46
2023-05-05T04:32:58.741Z,15.49
2023-05-05T04:35:26.394Z,15.50
2023-05-05T04:37:54.900Z,15.52
2023-05-05T04:40:22.109Z,15.55
2023-05-05T04:42:49.410Z,15.58
2023-05-05T04:45:17.070Z,15.63
2023-05-05T04:47:43.995Z,15.64
2023-05-05T04:50:11.762Z,15.65
2023-05-05T04:52:38.819Z,15.68
2023-05-05T04:55:06.972Z,15.71
2023-05-05T04:57:33.813Z,15.75
2023-05-05T05:00:01.536Z,15.81
2023-05-05T05:02:28.889Z,15.88
2023-05-05T05:04:57.882Z,15.92
2023-05-05T05:07:25.005Z,15.99
2023-05-05T05:09:52.117Z,16.05
2023-05-05T05:12:19.043Z,16.10
2023-05-05T05:14:45.931Z,16.14
2023-05-05T05:17:13.010Z,16.16
2023-05-05T05:19:40.383Z,16.18
2023-05-05T05:22:07.865Z,16.16
2023-05-05T05:24:37.283Z,16.20
2023-05-05T05:27:09.817Z,16.25
2023-05-05T05:29:37.929Z,16.26
2023-05-05T05:32:05.785Z,16.30
2023-05-05T05:34:32.745Z,16.36
2023-05-05T05:37:01.427Z,16.41
2023-05-05T05:39:28.586Z,16.45
2023-05-05T05:41:55.879Z,16.47
2023-05-05T05:44:22.772Z,16.49
2023-05-05T05:46:49.734Z,16.51
2023-05-05T05:49:16.951Z,16.53
2023-05-05T05:51:44.221Z,16.56
2023-05-05T05:54:11.126Z,16.63
2023-05-05T05:56:38.330Z,16.67
2023-05-05T05:59:08.152Z,16.68
2023-05-05T06:01:35.685Z,16.72
2023-05-05T06:04:03.488Z,16.79
2023-05-05T06:06:31.774Z,16.87
2023-05-05T06:08:58.880Z,16.98
2023-05-05T06:11:26.441Z,17.08
2023-05-05T06:13:53.343Z,17.17
2023-05-05T06:16:20.272Z,17.20
2023-05-05T06:18:47.885Z,17.24
2023-05-05T06:21:14.807Z,17.30
2023-05-05T06:23:42.437Z,17.39
2023-05-05T06:26:09.599Z,17.49
2023-05-05T06:28:36.717Z,17.57
2023-05-05T06:31:03.897Z,17.60
2023-05-05T06:33:30.913Z,17.65
2023-05-05T06:35:58.243Z,17.69
2023-05-05T06:38:25.086Z,17.73
2023-05-05T06:40:51.874Z,17.78
2023-05-05T06:43:18.772Z,17.88
2023-05-05T06:45:52.071Z,17.94
2023-05-05T06:48:18.945Z,17.95
2023-05-05T06:50:47.086Z,17.95
2023-05-05T06:53:13.882Z,18.01
2023-05-05T06:55:43.411Z,18.05
2023-05-05T06:58:10.284Z,18.06
2023-05-05T07:00:38.344Z,18.11
2023-05-05T07:03:05.228Z,18.17
2023-05-05T07:05:32.553Z,18.24
2023-05-05T07:07:59.496Z,18.31
2023-05-05T07:10:26.876Z,18.37
2023-05-05T07:12:55.108Z,18.45
2023-05-05T07:15:28.840Z,18.52
2023-05-05T07:17:57.111Z,18.59
2023-05-05T07:20:24.458Z,18.67
2023-05-05T07:22:51.669Z,18.71
2023-05-05T07:25:18.594Z,18.81
2023-05-05T07:27:45.817Z,18.92
2023-05-05T07:30:18.302Z,19.02
2023-05-05T07:32:46.305Z,19.11
2023-05-05T07:35:13.948Z,19.15
2023-05-05T07:37:40.800Z,19.18
2023-05-05T07:40:09.044Z,19.25
2023-05-05T07:42:36.398Z,19.34
2023-05-05T07:45:04.240Z,19.39
2023-05-05T07:47:31.250Z,19.49
2023-05-05T07:49:58.319Z,19.51
2023-05-05T07:52:41.174Z,19.49
2023-05-05T07:55:12.098Z,19.51
2023-05-05T07:57:39.209Z,19.55
2023-05-05T08:00:07.496Z,19.58
2023-05-05T08:02:41.630Z,19.57
2023-05-05T08:05:09.261Z,19.56
2023-05-05T08:07:38.550Z,19.58
2023-05-05T08:10:06.098Z,19.59
2023-05-05T08:12:33.180Z,19.59
2023-05-05T08:15:00.260Z,19.57
2023-05-05T08:17:27.415Z,19.53
2023-05-05T08:19:54.330Z,19.50
2023-05-05T08:22:21.880Z,19.54
2023-05-05T08:24:48.693Z,19.63
2023-05-05T08:27:16.033Z,19.75
2023-05-05T08:29:42.986Z,19.85
2023-05-05T08:32:09.804Z,20.02
2023-05-05T08:34:36.566Z,20.14
2023-05-05T08:37:03.356Z,20.20
2023-05-05T08:39:30.168Z,20.30
2023-05-05T08:41:56.960Z,20.35
2023-05-05T08:44:23.720Z,20.44
2023-05-05T08:46:50.600Z,20.56
2023-05-05T08:49:17.418Z,20.65
2023-05-05T08:51:45.443Z,20.69
2023-05-05T08:54:17.965Z,20.79
2023-05-05T08:56:45.001Z,20.87
2023-05-05T08:59:11.971Z,20.93
2023-05-05T09:01:39.229Z,20.98
2023-05-05T09:04:08.067Z,21.00
2023-05-05T09:06:35.683Z,21.10
2023-05-05T09:09:02.549Z,21.22
2023-05-05T09:11:29.603Z,21.32
2023-05-05T09:13:56.826Z,21.38
2023-05-05T09:16:23.650Z,21.39
2023-05-05T09:18:50.465Z,21.45
2023-05-05T09:21:24.922Z,21.57
2023-05-05T09:24:08.515Z,21.68
2023-05-05T09:26:37.368Z,21.77
2023-05-05T09:29:04.222Z,21.85
2023-05-05T09:31:32.130Z,21.97
2023-05-05T09:34:01.041Z,22.15
2023-05-05T09:36:44.436Z,22.35
2023-05-05T09:39:11.606Z,22.48
2023-05-05T09:41:42.507Z,22.59
2023-05-05T09:44:09.639Z,22.73
2023-05-05T09:46:36.711Z,22.88
2023-05-05T09:49:14.854Z,22.97
2023-05-05T09:51:41.929Z,23.05
2023-05-05T09:54:08.913Z,23.10
2023-05-05T10:01:21.469Z,23.10
2023-05-05T10:03:54.376Z,23.19
2023-05-05T10:06:22.104Z,23.29
2023-05-05T10:09:00.651Z,23.36
2023-05-05T10:11:27.447Z,23.47
2023-05-05T10:13:54.241Z,23.57
2023-05-05T10:16:21.104Z,23.67
2023-05-05T10:18:47.929Z,23.81
2023-05-05T10:21:15.529Z,23.95
2023-05-05T10:23:49.773Z,24.13
2023-05-05T10:30:44.329Z,24.72
2023-05-05T10:33:30.822Z,24.95
2023-05-05T10:36:01.371Z,25.19
2023-05-05T10:38:29.745Z,25.43
2023-05-05T10:40:56.711Z,25.62
2023-05-05T10:43:23.568Z,25.74
2023-05-05T10:45:50.456Z,25.87
2023-05-05T10:53:28.264Z,26.21
2023-05-05T10:56:25.349Z,26.41
2023-05-05T10:58:59.586Z,26.60
2023-05-05T11:01:34.936Z,26.73
2023-05-05T11:04:21.595Z,26.89
2023-05-05T11:07:13.708Z,27.05
2023-05-05T11:09:58.119Z,27.03
2023-05-05T11:12:24.937Z,27.10
2023-05-05T11:15:27.289Z,27.11
2023-05-05T11:17:57.774Z,27.13
2023-05-05T11:20:37.171Z,27.14
2023-05-05T11:23:04.307Z,27.14
2023-05-05T11:25:34.786Z,27.24
2023-05-05T11:33:13.219Z,27.70
2023-05-05T11:36:05.747Z,27.91
2023-05-05T11:38:36.062Z,28.06
2023-05-05T11:41:10.373Z,28.16
2023-05-05T11:43:37.177Z,28.31
2023-05-05T11:46:16.912Z,28.42
2023-05-05T11:48:47.373Z,28.35
2023-05-05T11:51:14.891Z,28.39
2023-05-05T11:53:48.571Z,28.46
2023-05-05T11:56:22.526Z,28.44
2023-05-05T11:58:49.607Z,28.44
2023-05-05T12:01:16.752Z,28.41
2023-05-05T12:08:17.160Z,28.40
2023-05-05T12:10:44.090Z,28.52
2023-05-05T12:13:19.298Z,28.71
2023-05-05T12:15:46.630Z,28.89
2023-05-05T12:18:20.489Z,29.03
2023-05-05T12:20:47.333Z,29.17
2023-05-05T12:23:14.707Z,29.39
2023-05-05T12:25:41.750Z,29.60
2023-05-05T12:28:08.716Z,29.69
2023-05-05T12:30:35.930Z,29.69
2023-05-05T12:33:07.086Z,29.52
2023-05-05T12:35:34.085Z,29.41
2023-05-05T12:38:01.263Z,29.45
2023-05-05T12:40:45.066Z,29.46
2023-05-05T12:43:31.485Z,29.49
2023-05-05T12:46:25.228Z,29.60
2023-05-05T12:49:04.968Z,29.79
2023-05-05T12:51:36.116Z,29.87
2023-05-05T12:54:08.222Z,29.85
2023-05-05T12:56:40.729Z,29.84
2023-05-05T12:59:08.181Z,29.67
2023-05-05T13:01:36.068Z,29.50
2023-05-05T13:04:13.431Z,29.36
2023-05-05T13:06:42.563Z,29.32
2023-05-05T13:09:12.337Z,29.43
2023-05-05T13:11:39.672Z,29.56
2023-05-05T13:14:06.727Z,29.47
2023-05-05T13:16:33.981Z,29.43
2023-05-05T13:19:00.812Z,29.24
2023-05-05T13:21:28.099Z,29.24
2023-05-05T13:24:04.932Z,29.44
2023-05-05T13:26:39.540Z,29.64
2023-05-05T13:29:06.446Z,29.70
2023-05-05T13:31:33.302Z,29.77
2023-05-05T13:34:00.220Z,29.76
2023-05-05T13:36:27.154Z,29.60
2023-05-05T13:38:54.082Z,29.41
2023-05-05T13:41:21.025Z,29.37
2023-05-05T13:43:47.980Z,29.34
2023-05-05T13:46:20.001Z,29.31
2023-05-05T13:48:47.343Z,29.30
2023-05-05T13:51:15.830Z,29.34
2023-05-05T13:53:44.169Z,29.42
2023-05-05T13:56:11.552Z,29.40
2023-05-05T13:58:38.436Z,29.21
2023-05-05T14:01:05.894Z,29.22
2023-05-05T14:03:33.354Z,29.35
2023-05-05T14:06:00.352Z,29.54
2023-05-05T14:08:27.308Z,29.74
2023-05-05T14:10:54.254Z,29.90
2023-05-05T14:13:22.067Z,30.07
2023-05-05T14:15:50.721Z,30.13
2023-05-05T14:18:17.704Z,30.06
2023-05-05T14:20:44.659Z,29.99
2023-05-05T14:23:11.608Z,29.90
2023-05-05T14:25:39.269Z,29.72
2023-05-05T14:28:06.251Z,29.51
2023-05-05T14:30:33.226Z,29.41
2023-05-05T14:33:01.266Z,29.43
2023-05-05T14:35:28.328Z,29.46
2023-05-05T14:37:57.910Z,29.49
2023-05-05T14:40:29.970Z,29.47
2023-05-05T14:42:59.340Z,29.40
2023-05-05T14:45:29.620Z,29.38
2023-05-05T14:47:59.016Z,29.36
2023-05-05T14:50:28.983Z,29.27
2023-05-05T14:52:58.980Z,29.13
2023-05-05T14:55:28.905Z,29.00
2023-05-05T14:57:58.989Z,28.94
2023-05-05T15:00:29.223Z,28.87
2023-05-05T15:02:59.466Z,28.69
2023-05-05T15:05:29.423Z,28.44
2023-05-05T15:07:59.047Z,28.29
2023-05-05T15:10:28.277Z,28.08
2023-05-05T15:12:58.119Z,27.89
2023-05-05T15:15:27.626Z,27.71
2023-05-05T15:17:56.556Z,27.48
2023-05-05T15:20:27.050Z,27.26
2023-05-05T15:22:58.078Z,27.11
2023-05-05T15:25:27.511Z,26.93
2023-05-05T15:27:58.047Z,26.76
2023-05-05T15:30:28.028Z,26.69
2023-05-05T15:32:58.109Z,26.68
2023-05-05T15:35:28.108Z,26.60
2023-05-05T15:44:20.280Z,26.03
2023-05-05T15:46:49.700Z,25.80
2023-05-05T15:49:17.414Z,25.59
2023-05-05T15:51:44.239Z,25.38
2023-05-05T15:54:11.284Z,25.20
2023-05-05T15:56:38.231Z,25.01
2023-05-05T15:59:05.238Z,24.77
2023-05-05T16:01:33.752Z,24.50
2023-05-05T16:04:01.442Z,24.24
2023-05-05T16:06:28.414Z,24.00
2023-05-05T16:08:58.209Z,23.80
2023-05-05T16:11:26.300Z,23.58
2023-05-05T16:13:53.643Z,23.37
2023-05-05T16:16:20.908Z,23.19
2023-05-05T16:18:48.038Z,23.03
2023-05-05T16:21:15.108Z,22.83
2023-05-05T16:23:42.212Z,22.66
2023-05-05T16:26:09.081Z,22.53
2023-05-05T16:28:36.243Z,22.38
2023-05-05T16:31:03.052Z,22.22
2023-05-05T16:33:30.076Z,22.09
2023-05-05T16:35:56.919Z,21.95
2023-05-05T16:38:23.929Z,21.84
2023-05-05T16:40:50.775Z,21.70
2023-05-05T16:43:18.888Z,21.56
2023-05-05T16:45:46.835Z,21.43
2023-05-05T16:48:14.820Z,21.31
2023-05-05T16:50:41.763Z,21.17
2023-05-05T16:53:09.387Z,21.04
2023-05-05T16:55:36.992Z,20.93
2023-05-05T16:58:04.470Z,20.81
2023-05-05T17:00:31.255Z,20.67
2023-05-05T17:02:58.162Z,20.54
2023-05-05T17:05:25.385Z,20.44
2023-05-05T17:07:52.516Z,20.33
2023-05-05T17:10:19.856Z,20.22
2023-05-05T17:12:46.660Z,20.09
2023-05-05T17:15:13.583Z,20.00
2023-05-05T17:17:42.358Z,19.91
2023-05-05T17:20:11.172Z,19.80
2023-05-05T17:22:38.294Z,19.71
2023-05-05T17:25:06.484Z,19.61
2023-05-05T17:27:33.579Z,19.52
2023-05-05T17:30:00.647Z,19.42
2023-05-05T17:32:27.740Z,19.34
2023-05-05T17:34:54.845Z,19.26
2023-05-05T17:37:21.977Z,19.16
2023-05-05T17:39:48.814Z,19.08
2023-05-05T17:42:19.304Z,18.98
2023-05-05T17:44:47.630Z,18.88
2023-05-05T17:47:14.946Z,18.82
2023-05-05T17:49:41.731Z,18.76
2023-05-05T17:52:08.601Z,18.70
2023-05-05T17:54:35.420Z,18.64
2023-05-05T17:57:03.184Z,18.57
2023-05-05T17:59:31.655Z,18.50
2023-05-05T18:01:58.476Z,18.41
2023-05-05T18:04:25.591Z,18.32
2023-05-05T18:06:56.598Z,18.21
2023-05-05T18:09:23.719Z,18.10
2023-05-05T18:11:54.165Z,17.99
2023-05-05T18:14:24.181Z,17.92
2023-05-05T18:16:52.484Z,17.86
2023-05-05T18:19:20.984Z,17.82
2023-05-05T18:21:48.805Z,17.76
2023-05-05T18:24:20.387Z,17.72
2023-05-05T18:26:49.671Z,17.70
2023-05-05T18:29:20.260Z,17.65
2023-05-05T18:31:51.986Z,17.62
2023-05-05T18:34:19.877Z,17.58
2023-05-05T18:36:47.150Z,17.55
2023-05-05T18:39:15.212Z,17.51
2023-05-05T18:41:42.134Z,17.46
2023-05-05T18:44:09.951Z,17.41
2023-05-05T18:46:36.832Z,17.37
2023-05-05T18:49:03.861Z,17.33
2023-05-05T18:51:30.903Z,17.29
2023-05-05T18:53:57.940Z,17.25
2023-05-05T18:56:24.765Z,17.20
2023-05-05T18:58:51.598Z,17.16
2023-05-05T19:01:18.703Z,17.15
2023-05-05T19:03:48.849Z,17.10
2023-05-05T19:06:16.314Z,17.04
2023-05-05T19:08:46.700Z,17.00
2023-05-05T19:11:15.264Z,16.97
2023-05-05T19:13:42.553Z,16.92
2023-05-05T19:16:11.367Z,16.85
2023-05-05T19:18:38.970Z,16.76
2023-05-05T19:21:05.902Z,16.71
2023-05-05T19:23:33.514Z,16.69
2023-05-05T19:26:00.754Z,16.66
2023-05-05T19:28:27.704Z,16.60
2023-05-05T19:30:54.758Z,16.54
2023-05-05T19:33:21.756Z,16.54
2023-05-05T19:35:48.644Z,16.47
2023-05-05T19:38:16.003Z,16.40
2023-05-05T19:40:42.923Z,16.35
2023-05-05T19:43:09.756Z,16.30
2023-05-05T19:45:36.640Z,16.26
2023-05-05T19:48:03.606Z,16.24
2023-05-05T19:50:31.849Z,16.24
2023-05-05T19:52:58.786Z,16.24
2023-05-05T19:55:25.962Z,16.24
2023-05-05T19:57:52.957Z,16.20
2023-05-05T20:00:20.321Z,16.17
2023-05-05T20:02:49.264Z,16.14
2023-05-05T20:05:17.470Z,16.11
2023-05-05T20:07:46.483Z,16.07
2023-05-05T20:10:13.639Z,16.03
2023-05-05T20:12:47.905Z,15.98
2023-05-05T20:15:18.854Z,15.95
2023-05-05T20:17:46.975Z,15.90
2023-05-05T20:20:20.476Z,15.90
2023-05-05T20:22:47.823Z,15.86
2023-05-05T20:25:17.750Z,15.83
2023-05-05T20:27:45.372Z,15.79
2023-05-05T20:30:12.539Z,15.75
2023-05-05T20:32:39.528Z,15.72
2023-05-05T20:35:07.464Z,15.68
2023-05-05T20:37:34.332Z,15.63
2023-05-05T20:40:01.139Z,15.60
2023-05-05T20:42:28.065Z,15.60
2023-05-05T20:44:54.929Z,15.60
2023-05-05T20:47:21.736Z,15.57
2023-05-05T20:49:48.757Z,15.53
2023-05-05T20:52:15.671Z,15.47
2023-05-05T20:54:42.562Z,15.43
2023-05-05T20:57:09.290Z,15.39
2023-05-05T20:59:36.073Z,15.35
2023-05-05T21:02:02.946Z,15.30
2023-05-05T21:04:29.795Z,15.24
2023-05-05T21:06:57.453Z,15.21
2023-05-05T21:09:24.218Z,15.20
2023-05-05T21:11:50.971Z,15.17
2023-05-05T21:14:17.995Z,15.16
2023-05-05T21:21:18.241Z,15.12
2023-05-05T21:23:47.333Z,15.08
2023-05-05T21:26:14.153Z,15.05
2023-05-05T21:28:41.415Z,15.00
2023-05-05T21:31:21.295Z,14.96
2023-05-05T21:33:49.499Z,14.94
2023-05-05T21:36:17.652Z,14.88
2023-05-05T21:38:44.786Z,14.81
2023-05-05T21:41:12.226Z,14.77
2023-05-05T21:43:39.109Z,14.71
2023-05-05T21:46:06.118Z,14.68
2023-05-05T21:48:33.213Z,14.67
2023-05-05T21:51:00.115Z,14.63
2023-05-05T21:53:27.009Z,14.58
2023-05-05T21:55:54.036Z,14.53
2023-05-05T21:58:20.825Z,14.47
2023-05-05T22:00:51.064Z,14.44
2023-05-05T22:03:18.317Z,14.39
2023-05-05T22:05:45.237Z,14.30
2023-05-05T22:08:12.079Z,14.22
2023-05-05T22:10:39.483Z,14.16
2023-05-05T22:13:06.778Z,14.10
2023-05-05T22:15:43.032Z,14.04
2023-05-05T22:18:14.132Z,13.96
2023-05-05T22:20:40.979Z,13.89
2023-05-05T22:23:07.819Z,13.84
2023-05-05T22:25:34.592Z,13.77
2023-05-05T22:28:01.494Z,13.71
2023-05-05T22:30:28.263Z,13.65
2023-05-05T22:32:55.224Z,13.58
2023-05-05T22:35:22.465Z,13.52
2023-05-05T22:37:49.328Z,13.44
2023-05-05T22:40:16.615Z,13.40
2023-05-05T22:42:43.579Z,13.36
2023-05-05T22:45:10.917Z,13.29
2023-05-05T22:47:37.930Z,13.22
2023-05-05T22:50:05.355Z,13.17
2023-05-05T22:52:32.172Z,13.10
2023-05-05T22:54:59.020Z,13.02
2023-05-05T22:57:25.879Z,12.94
2023-05-05T22:59:52.932Z,12.87
2023-05-05T23:02:19.987Z,12.82
2023-05-05T23:04:46.816Z,12.77
2023-05-05T23:07:14.113Z,12.72
2023-05-05T23:09:41.140Z,12.66
2023-05-05T23:16:57.521Z,12.45
2023-05-05T23:19:24.569Z,12.37
2023-05-05T23:21:53.661Z,12.33
2023-05-05T23:24:21.867Z,12.31
2023-05-05T23:26:49.281Z,12.29
2023-05-05T23:29:16.232Z,12.22
2023-05-05T23:31:43.070Z,12.18
2023-05-05T23:34:09.896Z,12.13
2023-05-05T23:36:37.058Z,12.10
2023-05-05T23:39:04.062Z,12.04
2023-05-05T23:41:30.867Z,11.99
2023-05-05T23:43:57.777Z,11.96
2023-05-05T23:46:25.057Z,11.94
2023-05-05T23:48:52.023Z,11.92
2023-05-05T23:51:18.830Z,11.89
2023-05-05T23:53:45.715Z,11.84
2023-05-05T23:56:12.940Z,11.81
2023-05-05T23:58:39.792Z,11.80
